To NAV CANADA Home Page Login to a new session Search on AWWS site Disclaimer Vers la page française équivalente Tips FAQ What's new on the site To the Forecasts and Observations / NOTAM section To "File a Flight Plan" website Publications and other links Update of the User's profile FIC Telephone Numbers My Weather Data Folder Route Weather Data Regional Weather Data Local Weather Data To the Forecasts and Observations / NOTAM section
Request Generated 04/24/2019 at 16:04:17 UTC . Weather information available at that time is displayed.

METAR/TAF

BAGOTVILLE/QC    

METAR CYBG 241600Z 10010KT 2SM -SHSN FEW008 OVC015 01/01 A2982 RMK SF2SC6 VIS VRB 1-3 SLP105=
SPECI CYBG 241533Z 11007KT 1SM R11/P6000FT -SHSN OVC008 01/00 A2981 RMK SN4SF4 VIS VRB 1/2-1 1/2 SLP103=
METAR CYBG 241500Z 09008KT 2SM -SHSN OVC010 00/00 A2980 RMK SN2SF6 VIS VRB 1-3 /S02/ SLP101=
SPECI CYBG 241433Z 09007KT 1SM R11/P6000FT -SHSN OVC008 01/M00 A2980 RMK SN6SF2 VIS VRB 1/2-1 1/2 SLP100=
METAR CYBG 241400Z 09008KT 3/4SM R11/P6000FT -SHSN OVC010 00/M00 A2980 RMK SN6SF2 VIS VRB 1/2-1 SLP098=

TAF CYBG 241430Z 2415/2512 09012KT 3/4SM -SHSN BR OVC008 TEMPO
2415/2416 3SM -SN SCT008 OVC020
FM241600 09012G22KT 5SM -RASN BR SCT015 OVC025 TEMPO 2416/2420
2SM -SHRASN BR OVC015
FM242000 09010G20KT P6SM -RASN OVC025 TEMPO 2420/2424 3SM -SHRASN
BR OVC020
FM250000 11010KT P6SM OVC025 TEMPO 2500/2510 5SM -SHSN OVC020
RMK NXT FCST BY 241800Z=
Your time UTC time
Weather data provided by Environment Canada and NAV CANADA